Aurora, OR

12:30 PM PDT on March 29, 2017 (GMT -0700)
Barlow Sunset Farm | | Change Station

Elev 153 ft 45.21 °N, 122.73 °W | Updated 16 seconds ago

Overcast
Overcast
53.7 °F
Feels Like 53.7 °F
N
13.0
Wind Variable Wind from South
Gusts 22.0 mph

Today
High -- | Low -- °F
--% Chance of Precip.
Yesterday
High -- | Low -- °F
Precip. -- in
Pressure 30.02 in
Visibility 6.0 miles
Clouds Mostly Cloudy 2200 ft
Overcast 3500 ft
Dew Point 50 °F
Humidity 86%
Rainfall 0.25 in
Snow Depth Not available.
6:56 AM 7:35 PM
Waxing Crescent, 4% visible
SPECI KUAO 291910Z 18021G29KT 6SM BR BKN022 OVC035 12/08 A3002 RMK AO2 PK WND 18029/1904 T01170083
Pressure 30.02 in
Visibility 6.0 miles
Clouds Mostly Cloudy 2200 ft
Overcast 3500 ft
Dew Point 50 °F
Humidity 86%
Rainfall 0.25 in
Snow Depth Not available.
6:56 AM 7:35 PM
Waxing Crescent, 4% visible
SPECI KUAO 291910Z 18021G29KT 6SM BR BKN022 OVC035 12/08 A3002 RMK AO2 PK WND 18029/1904 T01170083

Get Severe Weather Alerts

Thanks for signing up!

Be on the lookout for a verification email in your inbox.

You'll start receiving the daily forecast at 8 AM.

×

10-Day Weather Forecast

Almanac

Astronomy

Mar. 29, 2017 Rise Set
Actual Time
Civil Twilight
Nautical Twilight
Astronomical Twilight
Moon
Length of Visible Light
Length of Day
Tomorrow will be .
, % of the Moon is Illuminated

Today's Extremes

State Highs State Lows

Community

WunderPhotos

Upload Photos

1,962,540 photos uploaded!

WunderBlog® & News

Nearby

Air Quality

  Air Quality AQ Index Pollutant
Not available.

Snow Depth

Station Depth Elevation

Earthquake Activity

City Distance Mag. Time & Date
Minimum magnitude displayed is 2.5.

Earthquake Activity

City Distance Mag. Time & Date
Minimum magnitude displayed is 2.5.

Coastal Water Temperatures

Place Temperature

Stations

Nearby Weather Stations

Station Location Temp. Windchill Dew Point Humidity Wind Precip. Elev Updated Type
                   

Watches & Warnings

There are currently no watches in effect.